sensor_id;sensor_type;location;lat;lon;timestamp;P1;durP1;ratioP1;P2;durP2;ratioP2
51174;SDS011;37240;50.104;20.010;2024-01-16T00:02:05;16.60;;;5.85;;
51174;SDS011;37240;50.104;20.010;2024-01-16T00:07:06;10.48;;;6.40;;
51174;SDS011;37240;50.104;20.010;2024-01-16T00:12:06;11.30;;;5.72;;
51174;SDS011;37240;50.104;20.010;2024-01-16T00:17:07;17.80;;;5.78;;
51174;SDS011;37240;50.104;20.010;2024-01-16T00:22:08;13.20;;;6.18;;
51174;SDS011;37240;50.104;20.010;2024-01-16T00:27:08;11.75;;;5.93;;
51174;SDS011;37240;50.104;20.010;2024-01-16T00:32:09;13.90;;;6.57;;
51174;SDS011;37240;50.104;20.010;2024-01-16T00:37:09;11.82;;;6.68;;
51174;SDS011;37240;50.104;20.010;2024-01-16T00:42:10;14.23;;;6.68;;
51174;SDS011;37240;50.104;20.010;2024-01-16T00:47:10;19.27;;;7.90;;
51174;SDS011;37240;50.104;20.010;2024-01-16T00:52:11;15.07;;;6.75;;
51174;SDS011;37240;50.104;20.010;2024-01-16T00:57:11;14.88;;;6.55;;
51174;SDS011;37240;50.104;20.010;2024-01-16T01:02:12;16.48;;;7.68;;
51174;SDS011;37240;50.104;20.010;2024-01-16T01:07:14;13.38;;;6.95;;
51174;SDS011;37240;50.104;20.010;2024-01-16T01:12:14;16.60;;;7.25;;
51174;SDS011;37240;50.104;20.010;2024-01-16T01:17:15;12.77;;;6.50;;
51174;SDS011;37240;50.104;20.010;2024-01-16T01:22:15;10.88;;;6.30;;
51174;SDS011;37240;50.104;20.010;2024-01-16T01:27:16;16.00;;;7.30;;
51174;SDS011;37240;50.104;20.010;2024-01-16T01:32:17;16.73;;;7.22;;
51174;SDS011;37240;50.104;20.010;2024-01-16T01:37:17;13.05;;;6.78;;
51174;SDS011;37240;50.104;20.010;2024-01-16T01:42:18;16.60;;;6.90;;
51174;SDS011;37240;50.104;20.010;2024-01-16T01:47:18;13.23;;;6.75;;
51174;SDS011;37240;50.104;20.010;2024-01-16T01:52:19;9.85;;;6.20;;
51174;SDS011;37240;50.104;20.010;2024-01-16T01:57:20;13.05;;;6.45;;
51174;SDS011;37240;50.104;20.010;2024-01-16T02:02:21;12.55;;;6.85;;
51174;SDS011;37240;50.104;20.010;2024-01-16T02:07:22;14.50;;;6.95;;
51174;SDS011;37240;50.104;20.010;2024-01-16T02:12:23;11.82;;;6.70;;
51174;SDS011;37240;50.104;20.010;2024-01-16T02:17:24;11.20;;;6.93;;
51174;SDS011;37240;50.104;20.010;2024-01-16T02:22:24;14.93;;;7.07;;
51174;SDS011;37240;50.104;20.010;2024-01-16T02:27:27;12.25;;;6.15;;
51174;SDS011;37240;50.104;20.010;2024-01-16T02:32:27;10.88;;;6.68;;
51174;SDS011;37240;50.104;20.010;2024-01-16T02:37:28;11.90;;;6.78;;
51174;SDS011;37240;50.104;20.010;2024-01-16T02:42:29;11.70;;;7.47;;
51174;SDS011;37240;50.104;20.010;2024-01-16T02:47:30;13.38;;;7.28;;
51174;SDS011;37240;50.104;20.010;2024-01-16T02:52:30;11.23;;;6.88;;
51174;SDS011;37240;50.104;20.010;2024-01-16T02:57:31;13.52;;;7.55;;
51174;SDS011;37240;50.104;20.010;2024-01-16T03:02:31;12.70;;;6.45;;
51174;SDS011;37240;50.104;20.010;2024-01-16T03:07:32;12.45;;;7.20;;
51174;SDS011;37240;50.104;20.010;2024-01-16T03:12:33;13.20;;;6.50;;
51174;SDS011;37240;50.104;20.010;2024-01-16T03:17:33;10.02;;;6.68;;
51174;SDS011;37240;50.104;20.010;2024-01-16T03:22:34;11.90;;;6.85;;
51174;SDS011;37240;50.104;20.010;2024-01-16T03:27:34;10.48;;;5.85;;
51174;SDS011;37240;50.104;20.010;2024-01-16T03:32:35;11.43;;;6.28;;
51174;SDS011;37240;50.104;20.010;2024-01-16T03:37:37;13.10;;;7.28;;
51174;SDS011;37240;50.104;20.010;2024-01-16T03:42:38;13.35;;;7.57;;
51174;SDS011;37240;50.104;20.010;2024-01-16T03:47:38;14.13;;;6.82;;
51174;SDS011;37240;50.104;20.010;2024-01-16T03:52:39;9.50;;;5.63;;
51174;SDS011;37240;50.104;20.010;2024-01-16T03:57:40;11.85;;;6.55;;
51174;SDS011;37240;50.104;20.010;2024-01-16T04:02:40;7.97;;;5.45;;
51174;SDS011;37240;50.104;20.010;2024-01-16T04:07:41;9.52;;;6.28;;
51174;SDS011;37240;50.104;20.010;2024-01-16T04:12:41;11.05;;;6.28;;
51174;SDS011;37240;50.104;20.010;2024-01-16T04:17:42;9.48;;;5.03;;
51174;SDS011;37240;50.104;20.010;2024-01-16T04:22:42;9.25;;;5.40;;
51174;SDS011;37240;50.104;20.010;2024-01-16T04:27:43;13.18;;;6.63;;
51174;SDS011;37240;50.104;20.010;2024-01-16T04:32:43;9.30;;;5.93;;
51174;SDS011;37240;50.104;20.010;2024-01-16T04:37:44;10.65;;;5.28;;
51174;SDS011;37240;50.104;20.010;2024-01-16T04:42:44;9.05;;;5.25;;
51174;SDS011;37240;50.104;20.010;2024-01-16T04:47:45;13.27;;;6.13;;
51174;SDS011;37240;50.104;20.010;2024-01-16T04:52:45;8.38;;;5.28;;
51174;SDS011;37240;50.104;20.010;2024-01-16T04:57:46;9.35;;;6.22;;
51174;SDS011;37240;50.104;20.010;2024-01-16T05:02:46;8.27;;;5.65;;
51174;SDS011;37240;50.104;20.010;2024-01-16T05:07:47;9.73;;;6.38;;
51174;SDS011;37240;50.104;20.010;2024-01-16T05:12:47;10.50;;;6.45;;
51174;SDS011;37240;50.104;20.010;2024-01-16T05:17:48;11.40;;;5.00;;
51174;SDS011;37240;50.104;20.010;2024-01-16T05:22:49;11.77;;;6.05;;
51174;SDS011;37240;50.104;20.010;2024-01-16T05:27:50;15.10;;;7.88;;
51174;SDS011;37240;50.104;20.010;2024-01-16T05:32:51;12.60;;;6.05;;
51174;SDS011;37240;50.104;20.010;2024-01-16T05:37:51;9.38;;;6.40;;
51174;SDS011;37240;50.104;20.010;2024-01-16T05:42:52;10.35;;;5.97;;
51174;SDS011;37240;50.104;20.010;2024-01-16T05:47:52;11.25;;;5.93;;
51174;SDS011;37240;50.104;20.010;2024-01-16T05:52:53;19.65;;;5.63;;
51174;SDS011;37240;50.104;20.010;2024-01-16T05:57:53;17.23;;;5.65;;
51174;SDS011;37240;50.104;20.010;2024-01-16T06:02:54;13.23;;;5.78;;
51174;SDS011;37240;50.104;20.010;2024-01-16T06:07:54;7.75;;;4.25;;
51174;SDS011;37240;50.104;20.010;2024-01-16T06:12:55;5.30;;;3.20;;
51174;SDS011;37240;50.104;20.010;2024-01-16T06:17:56;7.30;;;3.95;;
51174;SDS011;37240;50.104;20.010;2024-01-16T06:22:56;4.40;;;3.30;;
51174;SDS011;37240;50.104;20.010;2024-01-16T06:27:57;8.45;;;4.60;;
51174;SDS011;37240;50.104;20.010;2024-01-16T06:32:57;7.05;;;4.93;;
51174;SDS011;37240;50.104;20.010;2024-01-16T06:37:58;10.80;;;4.53;;
51174;SDS011;37240;50.104;20.010;2024-01-16T06:42:58;16.73;;;6.53;;
51174;SDS011;37240;50.104;20.010;2024-01-16T06:47:59;17.77;;;7.95;;
51174;SDS011;37240;50.104;20.010;2024-01-16T06:52:59;26.42;;;10.68;;
51174;SDS011;37240;50.104;20.010;2024-01-16T06:58:00;19.13;;;8.88;;
51174;SDS011;37240;50.104;20.010;2024-01-16T07:03:00;14.35;;;6.88;;
51174;SDS011;37240;50.104;20.010;2024-01-16T07:08:01;15.13;;;5.18;;
51174;SDS011;37240;50.104;20.010;2024-01-16T07:13:02;15.85;;;5.95;;
51174;SDS011;37240;50.104;20.010;2024-01-16T07:18:02;12.32;;;4.38;;
51174;SDS011;37240;50.104;20.010;2024-01-16T07:23:04;8.05;;;4.57;;
51174;SDS011;37240;50.104;20.010;2024-01-16T07:28:04;8.05;;;4.80;;
51174;SDS011;37240;50.104;20.010;2024-01-16T07:33:05;11.73;;;5.25;;
51174;SDS011;37240;50.104;20.010;2024-01-16T07:38:05;9.77;;;6.43;;
51174;SDS011;37240;50.104;20.010;2024-01-16T07:43:06;14.75;;;5.88;;
51174;SDS011;37240;50.104;20.010;2024-01-16T07:48:06;7.85;;;4.38;;
51174;SDS011;37240;50.104;20.010;2024-01-16T07:53:07;8.55;;;4.95;;
51174;SDS011;37240;50.104;20.010;2024-01-16T07:58:10;20.65;;;9.10;;
51174;SDS011;37240;50.104;20.010;2024-01-16T08:03:11;23.95;;;11.25;;
51174;SDS011;37240;50.104;20.010;2024-01-16T08:08:12;20.50;;;7.97;;
51174;SDS011;37240;50.104;20.010;2024-01-16T08:13:12;18.25;;;6.00;;
51174;SDS011;37240;50.104;20.010;2024-01-16T08:18:13;9.15;;;5.50;;
51174;SDS011;37240;50.104;20.010;2024-01-16T08:23:14;7.97;;;4.75;;
51174;SDS011;37240;50.104;20.010;2024-01-16T08:28:14;10.27;;;6.78;;
51174;SDS011;37240;50.104;20.010;2024-01-16T08:33:15;13.57;;;6.97;;
51174;SDS011;37240;50.104;20.010;2024-01-16T08:38:15;19.58;;;7.63;;
51174;SDS011;37240;50.104;20.010;2024-01-16T08:43:16;17.95;;;10.07;;
51174;SDS011;37240;50.104;20.010;2024-01-16T08:48:16;59.65;;;24.15;;
51174;SDS011;37240;50.104;20.010;2024-01-16T08:53:17;35.35;;;15.57;;
51174;SDS011;37240;50.104;20.010;2024-01-16T08:58:17;19.70;;;10.13;;
51174;SDS011;37240;50.104;20.010;2024-01-16T09:03:18;18.45;;;9.23;;
51174;SDS011;37240;50.104;20.010;2024-01-16T09:08:18;18.73;;;7.60;;
51174;SDS011;37240;50.104;20.010;2024-01-16T09:13:19;13.88;;;6.93;;
51174;SDS011;37240;50.104;20.010;2024-01-16T09:18:20;12.50;;;6.20;;
51174;SDS011;37240;50.104;20.010;2024-01-16T09:23:21;14.88;;;7.43;;
51174;SDS011;37240;50.104;20.010;2024-01-16T09:28:21;11.77;;;5.95;;
51174;SDS011;37240;50.104;20.010;2024-01-16T09:33:22;13.35;;;6.80;;
51174;SDS011;37240;50.104;20.010;2024-01-16T09:38:23;12.65;;;5.53;;
51174;SDS011;37240;50.104;20.010;2024-01-16T09:43:25;77.65;;;30.38;;
51174;SDS011;37240;50.104;20.010;2024-01-16T09:48:30;31.10;;;14.55;;
51174;SDS011;37240;50.104;20.010;2024-01-16T09:53:30;22.45;;;9.32;;
51174;SDS011;37240;50.104;20.010;2024-01-16T09:58:32;15.35;;;5.43;;
51174;SDS011;37240;50.104;20.010;2024-01-16T10:03:36;14.38;;;5.70;;
51174;SDS011;37240;50.104;20.010;2024-01-16T10:08:37;12.20;;;5.95;;
51174;SDS011;37240;50.104;20.010;2024-01-16T10:13:39;15.00;;;4.82;;
51174;SDS011;37240;50.104;20.010;2024-01-16T10:18:39;14.05;;;4.88;;
51174;SDS011;37240;50.104;20.010;2024-01-16T10:23:40;10.15;;;3.78;;
51174;SDS011;37240;50.104;20.010;2024-01-16T10:28:41;18.42;;;4.85;;
51174;SDS011;37240;50.104;20.010;2024-01-16T10:33:42;8.38;;;4.25;;
51174;SDS011;37240;50.104;20.010;2024-01-16T10:38:43;8.57;;;4.50;;
51174;SDS011;37240;50.104;20.010;2024-01-16T10:43:45;50.72;;;16.65;;
51174;SDS011;37240;50.104;20.010;2024-01-16T10:48:58;43.08;;;15.30;;
51174;SDS011;37240;50.104;20.010;2024-01-16T11:04:05;10.27;;;4.95;;
51174;SDS011;37240;50.104;20.010;2024-01-16T11:09:07;12.10;;;5.53;;
51174;SDS011;37240;50.104;20.010;2024-01-16T11:14:09;10.95;;;5.03;;
51174;SDS011;37240;50.104;20.010;2024-01-16T11:19:12;9.00;;;4.50;;
51174;SDS011;37240;50.104;20.010;2024-01-16T11:24:14;16.83;;;5.38;;
51174;SDS011;37240;50.104;20.010;2024-01-16T11:39:43;22.95;;;8.65;;
51174;SDS011;37240;50.104;20.010;2024-01-16T11:44:47;21.58;;;6.55;;
51174;SDS011;37240;50.104;20.010;2024-01-16T11:50:08;17.10;;;6.25;;
51174;SDS011;37240;50.104;20.010;2024-01-16T12:00:40;9.98;;;4.65;;
51174;SDS011;37240;50.104;20.010;2024-01-16T12:05:58;20.27;;;6.60;;
51174;SDS011;37240;50.104;20.010;2024-01-16T12:10:59;16.48;;;4.90;;
51174;SDS011;37240;50.104;20.010;2024-01-16T12:16:00;12.13;;;6.13;;
51174;SDS011;37240;50.104;20.010;2024-01-16T12:21:08;13.82;;;5.78;;
51174;SDS011;37240;50.104;20.010;2024-01-16T12:26:09;14.05;;;5.60;;
51174;SDS011;37240;50.104;20.010;2024-01-16T12:31:19;14.60;;;5.05;;
51174;SDS011;37240;50.104;20.010;2024-01-16T12:36:19;11.80;;;5.18;;
51174;SDS011;37240;50.104;20.010;2024-01-16T12:41:20;15.82;;;5.22;;
51174;SDS011;37240;50.104;20.010;2024-01-16T12:46:21;17.02;;;4.70;;
51174;SDS011;37240;50.104;20.010;2024-01-16T12:51:21;18.73;;;5.75;;
51174;SDS011;37240;50.104;20.010;2024-01-16T12:56:22;15.52;;;5.68;;
51174;SDS011;37240;50.104;20.010;2024-01-16T13:01:26;13.57;;;6.53;;
51174;SDS011;37240;50.104;20.010;2024-01-16T13:06:27;16.77;;;6.53;;
51174;SDS011;37240;50.104;20.010;2024-01-16T13:11:28;12.25;;;5.45;;
51174;SDS011;37240;50.104;20.010;2024-01-16T13:16:28;12.57;;;4.57;;
51174;SDS011;37240;50.104;20.010;2024-01-16T13:21:29;10.65;;;4.60;;
51174;SDS011;37240;50.104;20.010;2024-01-16T13:26:30;15.63;;;4.40;;
51174;SDS011;37240;50.104;20.010;2024-01-16T13:31:30;6.90;;;4.32;;
51174;SDS011;37240;50.104;20.010;2024-01-16T13:36:31;7.97;;;3.75;;
51174;SDS011;37240;50.104;20.010;2024-01-16T13:41:32;9.63;;;4.35;;
51174;SDS011;37240;50.104;20.010;2024-01-16T13:46:32;9.23;;;5.35;;
51174;SDS011;37240;50.104;20.010;2024-01-16T13:51:33;16.02;;;5.70;;
51174;SDS011;37240;50.104;20.010;2024-01-16T13:56:33;19.23;;;6.72;;
51174;SDS011;37240;50.104;20.010;2024-01-16T14:01:34;14.88;;;7.13;;
51174;SDS011;37240;50.104;20.010;2024-01-16T14:06:34;22.02;;;7.57;;
51174;SDS011;37240;50.104;20.010;2024-01-16T14:11:35;27.75;;;8.90;;
51174;SDS011;37240;50.104;20.010;2024-01-16T14:16:35;35.60;;;10.70;;
51174;SDS011;37240;50.104;20.010;2024-01-16T14:21:36;31.70;;;10.15;;
51174;SDS011;37240;50.104;20.010;2024-01-16T14:26:36;19.75;;;7.22;;
51174;SDS011;37240;50.104;20.010;2024-01-16T14:31:37;20.20;;;5.80;;
51174;SDS011;37240;50.104;20.010;2024-01-16T14:36:38;16.70;;;5.10;;
51174;SDS011;37240;50.104;20.010;2024-01-16T14:41:39;14.32;;;4.82;;
51174;SDS011;37240;50.104;20.010;2024-01-16T14:46:40;11.30;;;4.80;;
51174;SDS011;37240;50.104;20.010;2024-01-16T14:51:41;10.27;;;4.55;;
51174;SDS011;37240;50.104;20.010;2024-01-16T14:56:41;12.02;;;4.75;;
51174;SDS011;37240;50.104;20.010;2024-01-16T15:01:42;15.73;;;5.07;;
51174;SDS011;37240;50.104;20.010;2024-01-16T15:06:43;14.82;;;6.28;;
51174;SDS011;37240;50.104;20.010;2024-01-16T15:11:43;27.70;;;9.68;;
51174;SDS011;37240;50.104;20.010;2024-01-16T15:16:44;20.00;;;9.10;;
51174;SDS011;37240;50.104;20.010;2024-01-16T15:21:44;20.10;;;9.07;;
51174;SDS011;37240;50.104;20.010;2024-01-16T15:26:45;17.67;;;7.88;;
51174;SDS011;37240;50.104;20.010;2024-01-16T15:31:45;14.55;;;6.53;;
51174;SDS011;37240;50.104;20.010;2024-01-16T15:36:46;15.98;;;7.57;;
51174;SDS011;37240;50.104;20.010;2024-01-16T15:41:47;17.10;;;7.47;;
51174;SDS011;37240;50.104;20.010;2024-01-16T15:46:57;25.90;;;10.02;;
51174;SDS011;37240;50.104;20.010;2024-01-16T15:51:58;19.00;;;9.43;;
51174;SDS011;37240;50.104;20.010;2024-01-16T15:56:59;22.80;;;7.93;;
51174;SDS011;37240;50.104;20.010;2024-01-16T16:02:00;14.63;;;7.68;;
51174;SDS011;37240;50.104;20.010;2024-01-16T16:07:00;22.10;;;7.40;;
51174;SDS011;37240;50.104;20.010;2024-01-16T16:12:01;19.45;;;8.18;;
51174;SDS011;37240;50.104;20.010;2024-01-16T16:17:01;21.08;;;7.53;;
51174;SDS011;37240;50.104;20.010;2024-01-16T16:22:05;18.00;;;7.55;;
51174;SDS011;37240;50.104;20.010;2024-01-16T16:27:21;19.17;;;7.18;;
51174;SDS011;37240;50.104;20.010;2024-01-16T16:32:25;23.55;;;8.32;;
51174;SDS011;37240;50.104;20.010;2024-01-16T16:37:26;25.23;;;8.65;;
51174;SDS011;37240;50.104;20.010;2024-01-16T16:42:26;18.85;;;7.95;;
51174;SDS011;37240;50.104;20.010;2024-01-16T16:47:27;26.10;;;8.93;;
51174;SDS011;37240;50.104;20.010;2024-01-16T16:52:27;38.45;;;14.30;;
51174;SDS011;37240;50.104;20.010;2024-01-16T16:57:28;30.15;;;11.90;;
51174;SDS011;37240;50.104;20.010;2024-01-16T17:02:29;22.80;;;10.05;;
51174;SDS011;37240;50.104;20.010;2024-01-16T17:07:29;23.52;;;10.65;;
51174;SDS011;37240;50.104;20.010;2024-01-16T17:12:30;23.02;;;9.32;;
51174;SDS011;37240;50.104;20.010;2024-01-16T17:17:30;19.15;;;8.85;;
51174;SDS011;37240;50.104;20.010;2024-01-16T17:22:31;19.15;;;7.03;;
51174;SDS011;37240;50.104;20.010;2024-01-16T17:27:31;14.18;;;6.80;;
51174;SDS011;37240;50.104;20.010;2024-01-16T17:32:32;21.98;;;7.93;;
51174;SDS011;37240;50.104;20.010;2024-01-16T17:37:32;18.45;;;8.13;;
51174;SDS011;37240;50.104;20.010;2024-01-16T17:42:33;16.42;;;7.75;;
51174;SDS011;37240;50.104;20.010;2024-01-16T17:47:37;18.60;;;8.10;;
51174;SDS011;37240;50.104;20.010;2024-01-16T17:52:38;19.75;;;7.95;;
51174;SDS011;37240;50.104;20.010;2024-01-16T17:57:38;16.20;;;8.55;;
51174;SDS011;37240;50.104;20.010;2024-01-16T18:02:39;30.83;;;10.57;;
51174;SDS011;37240;50.104;20.010;2024-01-16T18:07:40;28.83;;;11.80;;
51174;SDS011;37240;50.104;20.010;2024-01-16T18:12:40;21.73;;;9.60;;
51174;SDS011;37240;50.104;20.010;2024-01-16T18:17:41;29.33;;;8.35;;
51174;SDS011;37240;50.104;20.010;2024-01-16T18:22:43;14.80;;;7.25;;
51174;SDS011;37240;50.104;20.010;2024-01-16T18:27:44;22.13;;;9.02;;
51174;SDS011;37240;50.104;20.010;2024-01-16T18:32:45;24.48;;;8.40;;
51174;SDS011;37240;50.104;20.010;2024-01-16T18:37:45;27.60;;;8.40;;
51174;SDS011;37240;50.104;20.010;2024-01-16T18:42:46;19.90;;;8.75;;
51174;SDS011;37240;50.104;20.010;2024-01-16T18:47:47;22.17;;;9.05;;
51174;SDS011;37240;50.104;20.010;2024-01-16T18:52:47;19.67;;;8.80;;
51174;SDS011;37240;50.104;20.010;2024-01-16T18:57:48;24.25;;;9.30;;
51174;SDS011;37240;50.104;20.010;2024-01-16T19:02:48;23.67;;;9.82;;
51174;SDS011;37240;50.104;20.010;2024-01-16T19:07:49;28.70;;;10.52;;
51174;SDS011;37240;50.104;20.010;2024-01-16T19:12:49;23.20;;;10.95;;
51174;SDS011;37240;50.104;20.010;2024-01-16T19:17:50;28.13;;;9.75;;
51174;SDS011;37240;50.104;20.010;2024-01-16T19:22:50;27.48;;;10.68;;
51174;SDS011;37240;50.104;20.010;2024-01-16T19:27:51;28.45;;;10.32;;
51174;SDS011;37240;50.104;20.010;2024-01-16T19:32:52;21.50;;;9.02;;
51174;SDS011;37240;50.104;20.010;2024-01-16T19:37:52;31.45;;;11.55;;
51174;SDS011;37240;50.104;20.010;2024-01-16T19:42:53;29.33;;;9.90;;
51174;SDS011;37240;50.104;20.010;2024-01-16T19:47:53;26.20;;;11.43;;
51174;SDS011;37240;50.104;20.010;2024-01-16T19:52:54;26.42;;;10.55;;
51174;SDS011;37240;50.104;20.010;2024-01-16T19:57:55;32.03;;;12.20;;
51174;SDS011;37240;50.104;20.010;2024-01-16T20:02:55;43.08;;;13.85;;
51174;SDS011;37240;50.104;20.010;2024-01-16T20:07:56;32.47;;;13.57;;
51174;SDS011;37240;50.104;20.010;2024-01-16T20:12:56;42.80;;;17.90;;
51174;SDS011;37240;50.104;20.010;2024-01-16T20:17:58;57.97;;;18.92;;
51174;SDS011;37240;50.104;20.010;2024-01-16T20:23:00;43.70;;;17.90;;
51174;SDS011;37240;50.104;20.010;2024-01-16T20:28:00;41.90;;;17.85;;
51174;SDS011;37240;50.104;20.010;2024-01-16T20:33:01;49.90;;;19.02;;
51174;SDS011;37240;50.104;20.010;2024-01-16T20:38:02;55.08;;;20.25;;
51174;SDS011;37240;50.104;20.010;2024-01-16T20:43:02;56.33;;;19.15;;
51174;SDS011;37240;50.104;20.010;2024-01-16T20:48:03;46.97;;;18.98;;
51174;SDS011;37240;50.104;20.010;2024-01-16T20:53:04;48.47;;;18.50;;
51174;SDS011;37240;50.104;20.010;2024-01-16T20:58:04;54.20;;;18.35;;
51174;SDS011;37240;50.104;20.010;2024-01-16T21:03:05;52.85;;;20.50;;
51174;SDS011;37240;50.104;20.010;2024-01-16T21:08:05;51.70;;;17.95;;
51174;SDS011;37240;50.104;20.010;2024-01-16T21:13:08;56.65;;;20.52;;
51174;SDS011;37240;50.104;20.010;2024-01-16T21:18:08;40.88;;;16.27;;
51174;SDS011;37240;50.104;20.010;2024-01-16T21:23:09;44.67;;;17.50;;
51174;SDS011;37240;50.104;20.010;2024-01-16T21:28:10;58.55;;;19.25;;
51174;SDS011;37240;50.104;20.010;2024-01-16T21:33:11;65.68;;;22.00;;
51174;SDS011;37240;50.104;20.010;2024-01-16T21:38:12;68.53;;;20.77;;
51174;SDS011;37240;50.104;20.010;2024-01-16T21:43:12;59.90;;;20.70;;
51174;SDS011;37240;50.104;20.010;2024-01-16T21:48:13;39.58;;;16.75;;
51174;SDS011;37240;50.104;20.010;2024-01-16T21:53:14;38.65;;;15.23;;
51174;SDS011;37240;50.104;20.010;2024-01-16T21:58:14;40.40;;;16.65;;
51174;SDS011;37240;50.104;20.010;2024-01-16T22:03:15;38.95;;;16.08;;
51174;SDS011;37240;50.104;20.010;2024-01-16T22:08:15;45.95;;;16.17;;
51174;SDS011;37240;50.104;20.010;2024-01-16T22:13:16;45.88;;;17.98;;
51174;SDS011;37240;50.104;20.010;2024-01-16T22:18:16;62.13;;;20.25;;
51174;SDS011;37240;50.104;20.010;2024-01-16T22:23:17;66.57;;;23.70;;
51174;SDS011;37240;50.104;20.010;2024-01-16T22:28:17;78.15;;;25.48;;
51174;SDS011;37240;50.104;20.010;2024-01-16T22:33:18;74.57;;;27.55;;
51174;SDS011;37240;50.104;20.010;2024-01-16T22:38:19;74.85;;;25.75;;
51174;SDS011;37240;50.104;20.010;2024-01-16T22:43:19;77.72;;;28.20;;
51174;SDS011;37240;50.104;20.010;2024-01-16T22:48:20;81.13;;;27.20;;
51174;SDS011;37240;50.104;20.010;2024-01-16T22:53:20;100.72;;;33.03;;
51174;SDS011;37240;50.104;20.010;2024-01-16T22:58:21;107.72;;;34.33;;
51174;SDS011;37240;50.104;20.010;2024-01-16T23:03:21;97.07;;;32.35;;
51174;SDS011;37240;50.104;20.010;2024-01-16T23:08:22;105.07;;;35.58;;
51174;SDS011;37240;50.104;20.010;2024-01-16T23:13:22;88.35;;;31.10;;
51174;SDS011;37240;50.104;20.010;2024-01-16T23:18:23;86.75;;;31.20;;
51174;SDS011;37240;50.104;20.010;2024-01-16T23:23:23;96.20;;;31.63;;
51174;SDS011;37240;50.104;20.010;2024-01-16T23:28:24;66.75;;;25.50;;
51174;SDS011;37240;50.104;20.010;2024-01-16T23:33:24;66.30;;;27.52;;
51174;SDS011;37240;50.104;20.010;2024-01-16T23:38:25;82.53;;;27.42;;
51174;SDS011;37240;50.104;20.010;2024-01-16T23:43:26;77.82;;;27.38;;
51174;SDS011;37240;50.104;20.010;2024-01-16T23:48:26;78.60;;;28.48;;
51174;SDS011;37240;50.104;20.010;2024-01-16T23:53:27;96.78;;;30.80;;
51174;SDS011;37240;50.104;20.010;2024-01-16T23:58:28;97.68;;;31.55;;
